Time;durP1;ratioP1;P1;durP2;ratioP2;P2;SDS_P1;SDS_P2;PMS_P1;PMS_P2;Temp;Humidity;BMP_temperature;BMP_pressure;BME280_temperature;BME280_humidity;BME280_pressure;Samples;Min_cycle;Max_cycle;Signal;HPM_P1;HPM_P2
2022/03/28 00:00:18;;;;;;;27.20;11.05;;;6.70;99.90;;;;;;6273426;22;20027;-81
2022/03/28 00:03:06;;;;;;;19.75;11.00;;;6.60;99.90;;;;;;6273932;22;20299;-82
2022/03/28 00:05:55;;;;;;;27.80;10.75;;;6.60;99.90;;;;;;6274440;22;20034;-81
2022/03/28 00:08:43;;;;;;;24.90;10.88;;;6.60;99.90;;;;;;6253795;22;20093;-82
2022/03/28 00:11:32;;;;;;;29.35;11.55;;;6.50;99.90;;;;;;6273575;22;20027;-82
2022/03/28 00:14:28;;;;;;;22.35;10.77;;;6.50;99.90;;;;;;6273747;22;20035;-83
2022/03/28 00:17:15;;;;;;;20.73;10.00;;;6.50;99.90;;;;;;6272492;22;20146;-82
2022/03/28 00:20:11;;;;;;;26.02;10.70;;;6.50;99.90;;;;;;6273851;22;20024;-83
2022/03/28 00:22:58;;;;;;;25.25;11.68;;;6.40;99.90;;;;;;6273748;22;20042;-84
2022/03/28 00:25:45;;;;;;;23.40;10.85;;;6.40;99.90;;;;;;6274411;22;20073;-83
2022/03/28 00:28:36;;;;;;;21.77;11.60;;;6.30;99.90;;;;;;6235923;22;20023;-82
2022/03/28 00:31:23;;;;;;;27.50;10.73;;;6.30;99.90;;;;;;6255677;22;20073;-83
2022/03/28 00:34:11;;;;;;;22.65;10.60;;;6.30;99.90;;;;;;6254041;22;20123;-83
2022/03/28 00:36:58;;;;;;;22.30;10.45;;;6.20;99.90;;;;;;6252660;22;20036;-82
2022/03/28 00:39:46;;;;;;;22.75;10.93;;;6.20;99.90;;;;;;6276201;22;20020;-83
2022/03/28 00:42:37;;;;;;;26.90;10.70;;;6.20;99.90;;;;;;6278040;22;20034;-83
2022/03/28 00:45:33;;;;;;;21.63;10.32;;;6.20;99.90;;;;;;6276105;22;20035;-83
2022/03/28 00:48:21;;;;;;;18.50;10.23;;;6.00;99.90;;;;;;6276447;22;20031;-81
2022/03/28 00:51:09;;;;;;;20.00;11.30;;;5.90;99.90;;;;;;6235248;22;20326;-82
2022/03/28 00:53:56;;;;;;;18.80;10.32;;;5.80;99.90;;;;;;6276658;22;20031;-82
2022/03/28 00:56:47;;;;;;;25.50;11.50;;;5.70;99.90;;;;;;6275583;22;20112;-81
2022/03/28 00:59:39;;;;;;;25.42;11.30;;;5.60;99.90;;;;;;6254662;22;20074;-83
2022/03/28 01:02:26;;;;;;;22.63;10.73;;;5.50;99.90;;;;;;6274776;22;20031;-82
2022/03/28 01:05:14;;;;;;;23.95;10.43;;;5.50;99.90;;;;;;6275862;22;20439;-83
2022/03/28 01:08:02;;;;;;;21.52;9.77;;;5.40;1.00;;;;;;6252894;22;20023;-83
2022/03/28 01:10:53;;;;;;;23.13;10.85;;;5.30;1.00;;;;;;6276304;22;20034;-81
2022/03/28 01:13:43;;;;;;;21.48;10.13;;;5.20;1.00;;;;;;6233961;22;20042;-81
2022/03/28 01:18:05;;;;;;;24.27;11.52;;;5.20;1.00;;;;;;6275605;22;20027;-81
2022/03/28 01:19:39;;;;;;;37.45;11.43;;;5.10;1.00;;;;;;6275697;22;20030;-82
2022/03/28 01:22:26;;;;;;;21.83;10.40;;;5.10;1.00;;;;;;6276761;22;20030;-82
2022/03/28 01:25:23;;;;;;;18.15;9.98;;;5.20;1.00;;;;;;6276370;22;20020;-82
2022/03/28 01:28:10;;;;;;;22.83;10.80;;;5.20;1.00;;;;;;6275795;22;20035;-81
2022/03/28 01:30:58;;;;;;;23.13;10.23;;;5.30;1.00;;;;;;6252992;22;20062;-83
2022/03/28 01:33:46;;;;;;;28.05;11.70;;;5.30;1.00;;;;;;6275340;22;20042;-83
2022/03/28 01:36:34;;;;;;;23.98;11.02;;;5.30;1.00;;;;;;6253304;22;20035;-83
2022/03/28 01:39:21;;;;;;;25.23;11.45;;;5.40;1.00;;;;;;6277549;22;20024;-83
2022/03/28 01:42:10;;;;;;;27.27;11.05;;;5.40;1.00;;;;;;6276979;22;20031;-82
2022/03/28 01:44:59;;;;;;;28.67;11.18;;;5.50;1.00;;;;;;6285862;22;20034;-82
2022/03/28 01:47:46;;;;;;;22.05;10.05;;;5.40;1.00;;;;;;6285357;22;20137;-81
2022/03/28 01:50:34;;;;;;;25.85;11.45;;;5.40;1.00;;;;;;6285570;22;20028;-83
2022/03/28 01:53:24;;;;;;;25.63;11.50;;;5.40;1.00;;;;;;6267921;22;20082;-81
2022/03/28 01:56:12;;;;;;;25.67;11.07;;;5.50;1.00;;;;;;6265420;22;20023;-82
2022/03/28 01:58:59;;;;;;;27.25;10.38;;;5.60;99.90;;;;;;6276598;22;20032;-83
2022/03/28 02:01:50;;;;;;;21.23;10.85;;;5.90;99.90;;;;;;6254414;22;20020;-83
2022/03/28 02:04:38;;;;;;;22.08;10.77;;;5.90;99.90;;;;;;6276156;22;20092;-81
2022/03/28 02:07:25;;;;;;;23.10;10.55;;;5.80;99.90;;;;;;6274054;22;20031;-83
2022/03/28 02:10:15;;;;;;;22.42;10.88;;;5.80;99.90;;;;;;6275414;22;20438;-82
2022/03/28 02:13:04;;;;;;;24.70;10.52;;;5.70;99.90;;;;;;6275557;22;20455;-83
2022/03/28 02:15:52;;;;;;;22.88;11.95;;;5.80;99.90;;;;;;6276333;22;20027;-83
2022/03/28 02:18:44;;;;;;;24.13;10.90;;;5.80;99.90;;;;;;6277466;22;20119;-83
2022/03/28 02:21:34;;;;;;;26.02;11.60;;;5.80;99.90;;;;;;6275036;22;20038;-83
2022/03/28 02:24:21;;;;;;;24.25;11.50;;;5.90;99.90;;;;;;6255462;22;20020;-82
2022/03/28 02:27:09;;;;;;;24.23;11.57;;;6.00;99.90;;;;;;6274311;22;20087;-84
2022/03/28 02:30:03;;;;;;;24.30;12.13;;;5.90;99.90;;;;;;6275519;22;20039;-83
2022/03/28 02:32:51;;;;;;;23.27;11.20;;;6.00;99.90;;;;;;6254412;22;20249;-83
2022/03/28 02:35:38;;;;;;;24.95;12.25;;;6.00;99.90;;;;;;6274481;22;20121;-83
2022/03/28 02:38:40;;;;;;;27.63;12.90;;;6.00;99.90;;;;;;6275485;22;20019;-83
2022/03/28 02:41:28;;;;;;;26.65;11.85;;;5.80;99.90;;;;;;6275470;22;20033;-83
2022/03/28 02:44:15;;;;;;;25.52;12.20;;;5.80;99.90;;;;;;6253599;22;20097;-83
2022/03/28 02:47:10;;;;;;;25.10;11.40;;;5.70;99.90;;;;;;6255541;22;20024;-82
2022/03/28 02:50:02;;;;;;;28.45;12.45;;;5.70;99.90;;;;;;6277582;22;20032;-83
2022/03/28 02:52:54;;;;;;;30.45;12.65;;;5.80;99.90;;;;;;6277980;22;20050;-83
2022/03/28 02:55:43;;;;;;;31.00;12.25;;;5.90;99.90;;;;;;6277068;22;20032;-84
2022/03/28 02:58:30;;;;;;;24.45;11.48;;;5.80;99.90;;;;;;6274955;22;20047;-83
2022/03/28 03:01:19;;;;;;;27.85;11.63;;;5.80;99.90;;;;;;6276234;22;20034;-82
2022/03/28 03:04:10;;;;;;;24.15;11.75;;;5.70;99.90;;;;;;6255557;22;20291;-83
2022/03/28 03:06:58;;;;;;;28.45;11.77;;;5.60;99.90;;;;;;6275856;22;20341;-84
2022/03/28 03:09:48;;;;;;;24.70;12.05;;;5.50;99.90;;;;;;6255457;22;20083;-83
2022/03/28 03:12:40;;;;;;;27.30;13.10;;;5.40;99.90;;;;;;6254056;22;20394;-83
2022/03/28 03:15:28;;;;;;;25.00;12.07;;;5.50;99.90;;;;;;6256649;22;20035;-82
2022/03/28 03:18:15;;;;;;;24.55;11.85;;;5.60;99.90;;;;;;6255090;22;20027;-82
2022/03/28 03:21:02;;;;;;;24.90;11.73;;;5.50;99.90;;;;;;6253161;22;20116;-83
2022/03/28 03:23:49;;;;;;;29.35;11.70;;;5.50;99.90;;;;;;6256548;22;20024;-82
2022/03/28 03:26:39;;;;;;;20.77;11.57;;;5.30;99.90;;;;;;6277667;22;20030;-83
2022/03/28 03:29:27;;;;;;;32.03;12.65;;;5.10;1.00;;;;;;6256925;22;20051;-82
2022/03/28 03:32:14;;;;;;;23.27;12.23;;;5.00;1.00;;;;;;6278800;22;20024;-83
2022/03/28 03:35:07;;;;;;;26.02;11.35;;;5.00;1.00;;;;;;6277250;22;20108;-83
2022/03/28 03:38:17;;;;;;;24.63;11.98;;;5.20;1.00;;;;;;6260252;22;20043;-82
2022/03/28 03:41:06;;;;;;;23.40;11.95;;;5.20;1.00;;;;;;6275640;22;20027;-83
2022/03/28 03:43:53;;;;;;;30.17;11.88;;;5.30;1.00;;;;;;6257529;22;20074;-82
2022/03/28 03:46:43;;;;;;;25.42;12.48;;;5.30;1.00;;;;;;6282272;22;20531;-82
2022/03/28 03:49:39;;;;;;;29.35;12.23;;;5.30;1.00;;;;;;6289892;22;20046;-82
2022/03/28 03:52:51;;;;;;;27.13;12.07;;;5.20;1.00;;;;;;6274170;22;20071;-82
2022/03/28 03:55:39;;;;;;;26.13;12.25;;;5.30;1.00;;;;;;6291961;22;20102;-81
2022/03/28 03:58:32;;;;;;;25.52;12.15;;;5.20;1.00;;;;;;6291909;22;20020;-82
2022/03/28 04:03:55;;;;;;;22.80;11.55;;;5.00;99.90;;;;;;6273083;22;20025;-83
2022/03/28 04:12:03;;;;;;;23.23;12.32;;;4.50;99.90;;;;;;6295413;22;20304;-83
2022/03/28 04:14:50;;;;;;;28.92;13.07;;;4.50;99.90;;;;;;6270439;22;20020;-82
2022/03/28 04:17:46;;;;;;;28.05;12.32;;;4.60;99.90;;;;;;6292502;22;20126;-82
2022/03/28 04:20:35;;;;;;;33.60;13.25;;;4.50;99.90;;;;;;6289274;22;20031;-80
2022/03/28 04:23:25;;;;;;;31.20;13.68;;;4.40;1.00;;;;;;6290644;22;20047;-82
2022/03/28 04:26:14;;;;;;;23.93;12.70;;;4.30;99.90;;;;;;6290456;22;20261;-83
2022/03/28 04:29:03;;;;;;;23.15;12.93;;;4.30;99.90;;;;;;6285115;22;20024;-80
2022/03/28 04:59:02;;;;;;;34.47;13.63;;;4.60;45.30;;;;;;6280394;22;20019;-84
2022/03/28 05:01:49;;;;;;;25.67;12.63;;;4.70;1.00;;;;;;6306301;22;20419;-84
2022/03/28 05:04:42;;;;;;;26.73;13.43;;;4.70;1.00;;;;;;6328325;22;20012;-82
2022/03/28 05:07:32;;;;;;;30.08;13.05;;;4.70;99.90;;;;;;6286311;22;20055;-84
2022/03/28 05:10:20;;;;;;;26.83;12.63;;;4.60;1.00;;;;;;6322447;22;20031;-85
2022/03/28 05:13:09;;;;;;;29.75;11.80;;;4.60;1.00;;;;;;6321378;22;20023;-85
2022/03/28 05:16:03;;;;;;;32.28;13.20;;;4.60;1.00;;;;;;6322946;22;20030;-86
2022/03/28 05:18:57;;;;;;;25.50;11.95;;;4.80;99.90;;;;;;6321159;22;20044;-85
2022/03/28 05:21:44;;;;;;;25.75;14.23;;;4.90;99.90;;;;;;6310817;22;20429;-86
2022/03/28 05:24:32;;;;;;;28.27;12.75;;;4.90;99.90;;;;;;6307622;22;20019;-85
2022/03/28 05:27:20;;;;;;;33.17;12.20;;;5.00;99.90;;;;;;6285962;22;20037;-86
2022/03/28 05:30:10;;;;;;;30.27;13.25;;;5.10;99.90;;;;;;6285687;22;20422;-86
2022/03/28 05:33:01;;;;;;;34.65;13.65;;;5.20;99.90;;;;;;6308106;22;20037;-86
2022/03/28 05:35:50;;;;;;;25.60;13.05;;;5.30;99.70;;;;;;6284418;22;20027;-86
2022/03/28 05:38:38;;;;;;;32.75;13.73;;;5.40;99.90;;;;;;6287761;22;20372;-85
2022/03/28 05:41:25;;;;;;;33.50;13.77;;;5.50;1.00;;;;;;6284584;22;20023;-84
2022/03/28 05:44:16;;;;;;;32.28;12.75;;;5.60;1.00;;;;;;6285343;22;20173;-84
2022/03/28 05:47:06;;;;;;;29.88;13.32;;;5.70;1.00;;;;;;6306653;22;20020;-83
2022/03/28 05:49:53;;;;;;;31.30;14.07;;;5.80;1.00;;;;;;6306571;22;20041;-84
2022/03/28 05:52:41;;;;;;;28.90;13.52;;;5.90;1.00;;;;;;6307098;22;20092;-84
2022/03/28 05:55:30;;;;;;;27.00;13.23;;;6.00;1.00;;;;;;6305274;22;20031;-84
2022/03/28 05:58:17;;;;;;;32.00;12.60;;;6.10;1.00;;;;;;6303300;22;20027;-84
2022/03/28 06:01:08;;;;;;;30.23;14.55;;;6.10;99.90;;;;;;6306322;22;20034;-83
2022/03/28 06:03:56;;;;;;;32.88;14.48;;;6.20;1.00;;;;;;6307466;22;20085;-83
2022/03/28 06:06:43;;;;;;;28.80;14.50;;;6.40;1.00;;;;;;6307405;22;20023;-84
2022/03/28 06:09:31;;;;;;;27.20;13.00;;;6.50;99.90;;;;;;6306455;22;20027;-84
2022/03/28 06:12:21;;;;;;;25.33;13.02;;;6.60;99.90;;;;;;6306076;22;20034;-86
2022/03/28 06:15:13;;;;;;;36.17;13.65;;;6.70;99.90;;;;;;6307185;22;20286;-84
2022/03/28 06:18:04;;;;;;;31.83;12.98;;;6.80;99.90;;;;;;6283752;22;20034;-83
2022/03/28 06:20:52;;;;;;;27.40;13.43;;;6.80;99.90;;;;;;6284392;22;20034;-85
2022/03/28 06:23:40;;;;;;;29.85;14.30;;;6.90;99.90;;;;;;6304927;22;20034;-83
2022/03/28 06:26:29;;;;;;;28.65;14.25;;;7.00;99.90;;;;;;6306802;22;20023;-85
2022/03/28 06:29:17;;;;;;;25.92;13.18;;;7.20;99.90;;;;;;6306238;22;20044;-84
2022/03/28 06:32:10;;;;;;;27.60;13.45;;;7.40;99.90;;;;;;6285601;22;20157;-85
2022/03/28 06:34:57;;;;;;;31.17;14.18;;;7.60;99.90;;;;;;6305482;22;20027;-85
2022/03/28 06:37:50;;;;;;;30.02;13.82;;;7.70;99.90;;;;;;6306045;22;20027;-84
2022/03/28 06:40:38;;;;;;;30.48;14.68;;;7.90;99.90;;;;;;6282777;22;20414;-84
2022/03/28 06:43:25;;;;;;;27.83;14.38;;;8.10;94.90;;;;;;6308651;22;20038;-85
2022/03/28 06:46:16;;;;;;;29.50;13.85;;;8.30;84.60;;;;;;6307069;22;20033;-84
2022/03/28 06:49:03;;;;;;;29.92;14.02;;;8.50;72.10;;;;;;6305834;22;20016;-83
2022/03/28 06:51:53;;;;;;;28.20;14.68;;;8.80;59.00;;;;;;6283511;22;20125;-84
2022/03/28 06:54:43;;;;;;;30.77;14.95;;;9.20;38.00;;;;;;6311412;22;20030;-83
2022/03/28 06:57:30;;;;;;;29.30;14.68;;;9.40;23.90;;;;;;6288955;22;20023;-84
2022/03/28 07:00:19;;;;;;;35.78;14.57;;;9.50;18.10;;;;;;6309627;22;20379;-84
2022/03/28 07:03:08;;;;;;;45.20;15.38;;;9.70;11.10;;;;;;6309498;22;20629;-84
2022/03/28 07:06:03;;;;;;;41.95;15.73;;;10.20;6.20;;;;;;6307007;22;20026;-84
2022/03/28 07:08:51;;;;;;;31.75;14.55;;;10.60;1.00;;;;;;6283570;22;20279;-85
2022/03/28 07:11:40;;;;;;;40.95;13.73;;;10.90;1.00;;;;;;6284812;22;20047;-84
2022/03/28 07:14:27;;;;;;;37.05;14.40;;;11.10;1.00;;;;;;6284257;22;20027;-86
2022/03/28 07:17:15;;;;;;;33.28;13.68;;;11.30;1.00;;;;;;6284222;22;20023;-82
2022/03/28 07:20:02;;;;;;;31.10;14.25;;;11.70;1.00;;;;;;6305911;22;20094;-84
2022/03/28 07:22:53;;;;;;;27.42;13.35;;;11.70;1.00;;;;;;6282591;22;20034;-82
2022/03/28 07:25:44;;;;;;;33.47;14.60;;;11.80;1.00;;;;;;6304836;22;20334;-86
2022/03/28 07:28:38;;;;;;;35.58;14.48;;;12.10;1.00;;;;;;6282853;22;20023;-84
2022/03/28 07:31:30;;;;;;;36.50;15.15;;;12.40;1.00;;;;;;6283482;22;20102;-84
2022/03/28 07:34:30;;;;;;;25.08;14.70;;;12.50;1.00;;;;;;6306404;22;20133;-85
2022/03/28 07:37:17;;;;;;;34.47;15.82;;;12.70;1.00;;;;;;6310841;22;20153;-84
2022/03/28 07:40:07;;;;;;;30.88;14.52;;;12.80;1.00;;;;;;6307568;22;20073;-85
2022/03/28 07:42:55;;;;;;;27.45;14.98;;;12.80;1.00;;;;;;6308603;22;20307;-85
2022/03/28 07:45:43;;;;;;;32.22;15.25;;;12.90;1.00;;;;;;6284409;22;20106;-85
2022/03/28 07:48:31;;;;;;;31.65;15.95;;;13.20;1.00;;;;;;6307525;22;20024;-86
2022/03/28 07:51:19;;;;;;;27.45;16.00;;;13.70;1.00;;;;;;6286348;22;20065;-85
2022/03/28 07:54:09;;;;;;;35.95;16.20;;;14.10;1.00;;;;;;6308103;22;20025;-86
2022/03/28 07:56:57;;;;;;;28.90;16.98;;;14.30;1.00;;;;;;6287796;22;20095;-85
2022/03/28 07:59:50;;;;;;;32.50;17.25;;;14.50;1.00;;;;;;6307234;22;20055;-86
2022/03/28 08:02:59;;;;;;;30.05;16.15;;;14.70;1.00;;;;;;6306796;22;20099;-85
2022/03/28 08:05:56;;;;;;;33.50;16.58;;;15.00;1.00;;;;;;6307987;22;20029;-86
2022/03/28 08:08:43;;;;;;;32.33;17.15;;;15.30;1.00;;;;;;6308944;22;20023;-84
2022/03/28 08:11:31;;;;;;;28.65;16.55;;;15.70;1.00;;;;;;6318275;22;20035;-86
2022/03/28 08:14:21;;;;;;;30.90;16.48;;;16.10;1.00;;;;;;6320651;22;20031;-85
2022/03/28 08:17:10;;;;;;;30.48;16.67;;;16.30;1.00;;;;;;6302752;22;20035;-87
2022/03/28 08:19:58;;;;;;;30.83;16.17;;;16.60;1.00;;;;;;6326682;22;20035;-87
2022/03/28 08:22:49;;;;;;;36.22;17.88;;;16.60;1.00;;;;;;6327000;22;20063;-87
2022/03/28 08:25:44;;;;;;;28.25;16.15;;;16.80;1.00;;;;;;6326609;22;20023;-86
2022/03/28 08:28:35;;;;;;;31.15;16.88;;;16.90;1.00;;;;;;6331255;22;20015;-84
2022/03/28 08:31:24;;;;;;;31.75;16.63;;;17.00;1.00;;;;;;6326987;22;20390;-85
2022/03/28 08:34:12;;;;;;;29.77;16.73;;;17.00;1.00;;;;;;6319117;22;20323;-87
2022/03/28 08:37:04;;;;;;;28.60;15.70;;;17.30;1.00;;;;;;6318819;22;20038;-86
2022/03/28 08:39:55;;;;;;;28.73;16.05;;;17.60;1.00;;;;;;6319524;22;20050;-86
2022/03/28 08:42:44;;;;;;;26.88;15.63;;;18.60;1.00;;;;;;6317421;22;20082;-86
2022/03/28 08:45:34;;;;;;;29.58;15.07;;;19.40;1.00;;;;;;6310139;22;20095;-87
2022/03/28 08:48:24;;;;;;;28.87;16.40;;;19.90;1.00;;;;;;6312904;22;20068;-86
2022/03/28 08:51:13;;;;;;;26.42;16.45;;;19.90;1.00;;;;;;6312687;22;20351;-87
2022/03/28 08:54:04;;;;;;;28.95;15.45;;;19.70;1.00;;;;;;6310028;22;20023;-85
2022/03/28 08:56:53;;;;;;;23.98;14.75;;;19.60;1.00;;;;;;6313141;22;20119;-84
2022/03/28 08:59:42;;;;;;;26.02;15.43;;;19.60;1.00;;;;;;6306825;22;20095;-86
2022/03/28 09:02:42;;;;;;;24.05;15.05;;;20.20;1.00;;;;;;6287845;22;20084;-89
2022/03/28 09:05:36;;;;;;;29.70;15.55;;;20.50;1.00;;;;;;6310725;22;20034;-86
2022/03/28 09:08:24;;;;;;;26.13;16.20;;;20.50;1.00;;;;;;6306567;22;20019;-88
2022/03/28 09:11:23;;;;;;;24.45;15.05;;;20.10;1.00;;;;;;6307294;22;20106;-86
2022/03/28 09:14:20;;;;;;;28.67;14.77;;;20.50;1.00;;;;;;6308419;22;20030;-85
2022/03/28 09:17:10;;;;;;;24.85;15.32;;;21.30;1.00;;;;;;6287705;22;20023;-88
2022/03/28 09:20:03;;;;;;;22.63;14.32;;;21.80;1.00;;;;;;6284493;22;20034;-88
2022/03/28 09:22:55;;;;;;;22.80;14.25;;;22.30;1.00;;;;;;6306733;22;20023;-87
2022/03/28 09:25:55;;;;;;;28.40;15.57;;;22.40;1.00;;;;;;6307252;22;20019;-86
2022/03/28 09:28:49;;;;;;;24.00;13.85;;;22.50;1.00;;;;;;6306937;22;20019;-88
2022/03/28 09:31:44;;;;;;;27.35;13.95;;;23.10;1.00;;;;;;6307192;22;20023;-84
2022/03/28 09:34:34;;;;;;;24.23;14.57;;;23.40;1.00;;;;;;6283847;22;20047;-84
2022/03/28 09:37:22;;;;;;;25.60;14.05;;;23.30;1.00;;;;;;6283907;22;20430;-85
2022/03/28 09:40:26;;;;;;;21.75;13.40;;;22.40;1.00;;;;;;6306437;22;20398;-86
2022/03/28 09:43:30;;;;;;;21.55;13.35;;;21.40;1.00;;;;;;6291526;22;20019;-87
2022/03/28 09:46:37;;;;;;;22.88;13.65;;;21.90;1.00;;;;;;6308876;22;20042;-85
2022/03/28 09:49:26;;;;;;;21.50;13.13;;;23.20;1.00;;;;;;6310392;22;20058;-87
2022/03/28 09:52:17;;;;;;;24.63;12.55;;;24.00;1.00;;;;;;6284614;22;20034;-88
2022/03/28 09:55:06;;;;;;;28.02;15.57;;;24.90;1.00;;;;;;6287306;22;20035;-87
2022/03/28 09:57:56;;;;;;;24.55;14.15;;;25.40;1.00;;;;;;6308679;22;20051;-88
2022/03/28 10:00:49;;;;;;;24.75;13.60;;;24.60;1.00;;;;;;6277765;22;20031;-86
2022/03/28 10:03:37;;;;;;;28.08;14.60;;;24.70;1.00;;;;;;6258235;22;20019;-87
2022/03/28 10:06:37;;;;;;;25.70;15.18;;;25.30;1.00;;;;;;6279492;22;20066;-85
2022/03/28 10:09:25;;;;;;;24.15;14.25;;;24.70;1.00;;;;;;6257580;22;20015;-88
2022/03/28 10:12:13;;;;;;;29.17;15.00;;;23.90;1.00;;;;;;6254406;22;20086;-87
2022/03/28 10:15:01;;;;;;;25.02;15.50;;;23.10;1.00;;;;;;6282113;22;20095;-87
2022/03/28 10:17:50;;;;;;;24.55;15.07;;;22.60;1.00;;;;;;6288085;22;20027;-86
2022/03/28 10:20:42;;;;;;;22.10;14.20;;;22.30;1.00;;;;;;6289418;22;20406;-86
2022/03/28 10:23:42;;;;;;;29.25;14.68;;;22.00;1.00;;;;;;6288701;22;20039;-89
2022/03/28 10:26:34;;;;;;;25.23;15.15;;;22.20;1.00;;;;;;6282088;22;20027;-86
2022/03/28 10:29:37;;;;;;;23.55;15.18;;;23.20;1.00;;;;;;6258414;22;20106;-87
2022/03/28 10:32:27;;;;;;;20.52;13.73;;;23.50;1.00;;;;;;6283148;22;20028;-87
2022/03/28 10:35:16;;;;;;;21.45;15.05;;;23.60;1.00;;;;;;6254911;22;20107;-85
2022/03/28 10:38:20;;;;;;;24.98;14.35;;;23.20;1.00;;;;;;6287616;22;20031;-88
2022/03/28 10:41:15;;;;;;;21.70;14.00;;;23.10;1.00;;;;;;6289847;22;20024;-89
2022/03/28 10:44:04;;;;;;;25.02;14.45;;;23.90;1.00;;;;;;6279887;22;20035;-86
2022/03/28 10:47:04;;;;;;;21.42;14.25;;;24.00;99.90;;;;;;6281080;22;20024;-85
2022/03/28 10:49:54;;;;;;;20.35;13.88;;;23.30;99.90;;;;;;6278791;22;20016;-87
2022/03/28 10:53:13;;;;;;;22.23;14.00;;;23.20;1.00;;;;;;6256471;22;20388;-85
2022/03/28 10:56:03;;;;;;;24.17;14.80;;;23.80;1.00;;;;;;6277832;22;20035;-85
2022/03/28 10:58:54;;;;;;;21.70;14.98;;;23.80;1.00;;;;;;6284231;22;20019;-88
2022/03/28 11:01:43;;;;;;;20.65;13.05;;;24.20;99.90;;;;;;6307823;22;20114;-86
2022/03/28 11:04:46;;;;;;;20.13;13.93;;;24.10;99.90;;;;;;6288799;22;20027;-85
2022/03/28 11:07:35;;;;;;;25.40;15.38;;;24.20;1.00;;;;;;6306169;22;20124;-85
2022/03/28 11:10:23;;;;;;;22.95;14.35;;;24.60;1.00;;;;;;6306406;22;20027;-86
2022/03/28 11:13:15;;;;;;;21.00;14.55;;;25.10;1.00;;;;;;6306955;22;20064;-85
2022/03/28 11:16:03;;;;;;;22.67;13.65;;;24.70;1.00;;;;;;6284433;22;20023;-88
2022/03/28 11:19:18;;;;;;;22.60;13.85;;;24.80;99.90;;;;;;6292980;22;20023;-86
2022/03/28 11:22:09;;;;;;;21.58;13.30;;;25.00;1.00;;;;;;6310942;22;20065;-87
2022/03/28 11:25:02;;;;;;;24.20;14.90;;;24.90;1.00;;;;;;6310037;22;20019;-86
2022/03/28 11:27:49;;;;;;;20.75;13.88;;;25.30;99.90;;;;;;6286174;22;20034;-85
2022/03/28 11:30:59;;;;;;;20.50;14.02;;;26.70;99.90;;;;;;6309040;22;20027;-85
2022/03/28 11:33:51;;;;;;;21.75;14.27;;;25.80;99.90;;;;;;6289416;22;20075;-88
2022/03/28 11:36:39;;;;;;;23.23;14.27;;;25.50;1.00;;;;;;6311308;22;20110;-87
2022/03/28 11:39:31;;;;;;;25.88;14.95;;;24.30;99.90;;;;;;6313941;22;20085;-87
2022/03/28 11:42:25;;;;;;;21.02;14.38;;;24.60;1.00;;;;;;6311662;22;20047;-84
2022/03/28 11:45:13;;;;;;;22.42;14.95;;;25.10;1.00;;;;;;6309880;22;20015;-87
2022/03/28 11:48:03;;;;;;;23.70;14.02;;;25.10;99.90;;;;;;6312629;22;20075;-85
2022/03/28 11:50:55;;;;;;;22.50;15.00;;;25.60;1.00;;;;;;6317099;22;20497;-87
2022/03/28 11:53:45;;;;;;;22.58;13.85;;;26.00;99.90;;;;;;6312869;22;20020;-89
2022/03/28 11:58:14;;;;;;;21.40;13.38;;;26.70;99.90;;;;;;6317182;22;20072;-90
2022/03/28 11:59:45;;;;;;;24.75;14.73;;;28.10;99.90;;;;;;6316099;22;20031;-86
2022/03/28 12:02:49;;;;;;;18.77;13.18;;;28.20;99.90;;;;;;6316082;22;20023;-88
2022/03/28 12:05:46;;;;;;;19.55;13.32;;;28.70;99.90;;;;;;6296474;22;20027;-88
2022/03/28 12:08:36;;;;;;;16.88;12.75;;;28.80;99.90;;;;;;6312870;22;20019;-87
2022/03/28 12:11:25;;;;;;;20.33;12.60;;;28.30;99.90;;;;;;6268591;22;20487;-88
2022/03/28 12:14:13;;;;;;;18.67;13.25;;;27.90;99.90;;;;;;6311168;22;20041;-89
2022/03/28 12:17:08;;;;;;;20.35;12.93;;;27.20;99.90;;;;;;6308856;22;20027;-87
2022/03/28 12:20:05;;;;;;;19.80;10.45;;;27.00;99.90;;;;;;6310174;22;20381;-85
2022/03/28 12:22:55;;;;;;;15.80;10.18;;;27.90;99.90;;;;;;6289166;22;20019;-89
2022/03/28 12:25:45;;;;;;;16.77;10.90;;;28.30;99.90;;;;;;6313444;22;20023;-87
2022/03/28 12:28:36;;;;;;;16.23;9.75;;;27.90;99.90;;;;;;6312485;22;20019;-86
2022/03/28 12:31:23;;;;;;;13.98;8.55;;;27.50;99.90;;;;;;6309810;22;20038;-86
2022/03/28 12:34:12;;;;;;;18.17;9.20;;;26.80;1.00;;;;;;6285873;22;20287;-89
2022/03/28 12:37:05;;;;;;;16.45;9.38;;;26.30;1.00;;;;;;6320784;22;20054;-88
2022/03/28 12:40:00;;;;;;;13.98;9.70;;;26.10;1.00;;;;;;6322431;22;20061;-85
2022/03/28 12:42:49;;;;;;;28.30;14.52;;;26.00;99.90;;;;;;6327550;22;20022;-81
2022/03/28 12:45:39;;;;;;;23.13;14.50;;;26.40;99.90;;;;;;6334379;22;20011;-84
2022/03/28 12:48:41;;;;;;;21.00;14.57;;;27.60;99.90;;;;;;6331266;22;20079;-83
2022/03/28 12:51:35;;;;;;;29.00;16.35;;;29.10;99.90;;;;;;6330296;22;20035;-85
2022/03/28 12:54:23;;;;;;;25.33;15.57;;;29.70;99.90;;;;;;6330066;22;20079;-87
2022/03/28 12:57:22;;;;;;;29.58;16.23;;;28.90;1.00;;;;;;6332762;22;20065;-81
2022/03/28 13:00:14;;;;;;;24.35;14.65;;;28.60;1.00;;;;;;6311342;22;20015;-82
2022/03/28 13:03:02;;;;;;;29.00;15.88;;;28.30;1.00;;;;;;6307307;22;20011;-85
2022/03/28 13:06:11;;;;;;;25.15;14.70;;;29.90;1.00;;;;;;6331439;22;20039;-81
2022/03/28 13:09:06;;;;;;;21.90;14.35;;;31.10;1.00;;;;;;6326304;22;20050;-88
2022/03/28 13:11:56;;;;;;;24.00;14.00;;;30.90;99.90;;;;;;6319967;22;20373;-88
2022/03/28 13:14:49;;;;;;;24.73;13.37;;;30.30;99.90;;;;;;6321991;22;20092;-88
2022/03/28 13:17:43;;;;;;;29.83;13.43;;;30.70;1.00;;;;;;6314578;22;20028;-89
2022/03/28 13:20:32;;;;;;;21.77;13.77;;;30.60;1.00;;;;;;6309311;22;20113;-88
2022/03/28 13:23:32;;;;;;;19.95;13.05;;;30.80;1.00;;;;;;6315151;22;20035;-89
2022/03/28 13:26:19;;;;;;;22.02;13.10;;;31.30;1.00;;;;;;6310131;22;20092;-89
2022/03/28 13:29:27;;;;;;;22.67;12.95;;;30.50;1.00;;;;;;6286051;22;20080;-86
2022/03/28 13:32:16;;;;;;;17.35;12.07;;;29.60;1.00;;;;;;6308105;22;20027;-86
2022/03/28 13:35:06;;;;;;;17.13;12.07;;;30.00;1.00;;;;;;6309126;22;20122;-85
2022/03/28 13:38:00;;;;;;;18.45;12.05;;;29.90;1.00;;;;;;6287836;22;20023;-89
2022/03/28 13:40:50;;;;;;;19.58;11.45;;;30.20;1.00;;;;;;6309750;22;20019;-87
2022/03/28 13:43:38;;;;;;;17.75;12.00;;;30.80;1.00;;;;;;6307852;22;20031;-85
2022/03/28 13:46:27;;;;;;;19.20;12.02;;;30.30;1.00;;;;;;6290279;22;20023;-90
2022/03/28 13:49:17;;;;;;;17.45;10.95;;;29.70;1.00;;;;;;6308629;22;20023;-90
2022/03/28 13:52:07;;;;;;;20.02;11.45;;;29.10;1.00;;;;;;6287265;22;20326;-87
2022/03/28 13:54:54;;;;;;;17.27;11.63;;;28.40;1.00;;;;;;6314510;22;20057;-89
2022/03/28 13:57:41;;;;;;;20.10;10.55;;;29.00;1.00;;;;;;6319471;22;20098;-87
2022/03/28 14:00:35;;;;;;;14.98;10.30;;;29.50;1.00;;;;;;6296594;22;20023;-89
2022/03/28 14:03:25;;;;;;;16.58;9.98;;;29.40;1.00;;;;;;6319644;22;20049;-92
2022/03/28 14:06:12;;;;;;;19.75;9.88;;;29.30;1.00;;;;;;6295174;22;20027;-86
2022/03/28 14:09:06;;;;;;;18.30;10.90;;;29.70;1.00;;;;;;6312298;22;20085;-88
2022/03/28 14:11:53;;;;;;;18.75;10.20;;;29.00;1.00;;;;;;6310876;22;20037;-86
2022/03/28 14:14:46;;;;;;;11.07;8.48;;;28.50;1.00;;;;;;6313369;22;20027;-86
2022/03/28 14:17:37;;;;;;;14.43;9.98;;;28.30;99.90;;;;;;6288325;22;20023;-86
2022/03/28 14:20:25;;;;;;;13.20;9.00;;;27.50;1.00;;;;;;6310400;22;20046;-87
2022/03/28 14:27:52;;;;;;;14.88;8.88;;;27.90;1.00;;;;;;6307903;22;20003;-86
2022/03/28 14:35:34;;;;;;;14.75;9.13;;;28.70;99.90;;;;;;6107523;23;20049;-88
2022/03/28 14:57:06;;;;;;;11.57;8.05;;;30.40;99.90;;;;;;5591740;22;12044745;-91
2022/03/28 14:59:55;;;;;;;13.73;7.25;;;28.90;99.90;;;;;;6106478;23;20019;-85
2022/03/28 15:02:43;;;;;;;11.82;7.15;;;28.10;1.00;;;;;;6102934;23;20037;-83
2022/03/28 15:05:35;;;;;;;10.88;7.32;;;27.70;99.90;;;;;;6084421;23;20029;-84
2022/03/28 15:08:25;;;;;;;11.50;7.45;;;26.70;1.00;;;;;;6087828;23;20038;-81
2022/03/28 15:11:13;;;;;;;10.10;7.20;;;26.10;1.00;;;;;;6082472;23;20156;-86
2022/03/28 15:14:06;;;;;;;10.02;7.03;;;25.60;1.00;;;;;;6092145;23;20065;-91
2022/03/28 15:16:57;;;;;;;11.02;7.38;;;25.40;1.00;;;;;;6109822;23;20026;-87
2022/03/28 15:19:45;;;;;;;13.05;6.72;;;25.60;1.00;;;;;;6103416;23;20076;-87
2022/03/28 15:22:35;;;;;;;22.98;7.45;;;25.40;1.00;;;;;;6078837;23;20026;-82
2022/03/28 15:25:24;;;;;;;12.07;7.38;;;24.80;1.00;;;;;;6100335;23;20022;-84
2022/03/28 15:28:12;;;;;;;9.77;7.07;;;24.80;1.00;;;;;;6099390;23;20030;-82
2022/03/28 15:31:27;;;;;;;13.07;8.00;;;24.20;1.00;;;;;;6080743;23;20030;-85
2022/03/28 15:34:16;;;;;;;15.60;7.90;;;23.80;1.00;;;;;;6100731;23;20030;-86
2022/03/28 15:37:10;;;;;;;12.82;7.40;;;22.90;1.00;;;;;;6080356;23;20029;-86
2022/03/28 15:39:58;;;;;;;10.65;6.60;;;22.50;1.00;;;;;;6100544;23;20040;-85
2022/03/28 15:42:45;;;;;;;12.10;6.90;;;22.20;1.00;;;;;;6078885;23;20022;-84